Time;durP1;ratioP1;P1;durP2;ratioP2;P2;SDS_P1;SDS_P2;PMS_P1;PMS_P2;Temp;Humidity;BMP_temperature;BMP_pressure;BME280_temperature;BME280_humidity;BME280_pressure;Samples;Min_cycle;Max_cycle;Signal;HPM_P1;HPM_P2
2021/01/22 00:02:26;;;;;;;17.57;8.13;;;;;;;3.97;100.00;101225.25;1703149;84;21086;-52
2021/01/22 00:04:53;;;;;;;26.73;9.58;;;;;;;3.97;100.00;101229.23;1732202;82;21147;-52
2021/01/22 00:07:21;;;;;;;20.72;8.85;;;;;;;3.95;100.00;101219.97;1703130;84;21157;-52
2021/01/22 00:09:48;;;;;;;23.00;9.48;;;;;;;3.94;100.00;101222.17;1732202;82;21714;-51
2021/01/22 00:12:16;;;;;;;26.27;9.70;;;;;;;3.95;100.00;101226.60;1703063;84;21122;-52
2021/01/22 00:14:43;;;;;;;23.60;8.75;;;;;;;3.96;100.00;101228.37;1732146;82;21114;-52
2021/01/22 00:17:11;;;;;;;23.60;7.83;;;;;;;3.98;100.00;101230.58;1732152;82;21186;-51
2021/01/22 00:19:39;;;;;;;21.15;8.28;;;;;;;3.97;100.00;101231.46;1703163;84;21050;-51
2021/01/22 00:22:09;;;;;;;19.60;8.20;;;;;;;3.98;100.00;101229.25;1732081;82;21103;-51
2021/01/22 00:24:36;;;;;;;23.22;9.03;;;;;;;3.99;100.00;101238.11;1703078;84;21086;-51
2021/01/22 00:27:05;;;;;;;22.10;9.15;;;;;;;3.99;100.00;101235.00;1732345;82;21578;-51
2021/01/22 00:29:33;;;;;;;24.47;8.93;;;;;;;4.00;100.00;101230.59;1703255;84;21716;-52
2021/01/22 00:32:00;;;;;;;24.05;8.45;;;;;;;4.00;100.00;101234.11;1732213;82;21205;-52
2021/01/22 00:34:29;;;;;;;17.77;7.95;;;;;;;4.01;100.00;101238.98;1703098;84;21378;-52
2021/01/22 00:36:59;;;;;;;18.65;8.05;;;;;;;4.01;100.00;101238.53;1731368;82;21175;-51
2021/01/22 00:39:29;;;;;;;24.72;8.60;;;;;;;4.03;100.00;101235.89;1726211;82;21510;-52
2021/01/22 00:41:57;;;;;;;27.07;9.10;;;;;;;4.03;100.00;101237.64;1726054;83;21160;-52
2021/01/22 00:44:25;;;;;;;18.75;8.13;;;;;;;4.03;100.00;101236.32;1724164;83;21152;-52
2021/01/22 00:46:53;;;;;;;17.60;7.95;;;;;;;4.00;100.00;101228.80;1721001;83;21681;-51
2021/01/22 00:49:20;;;;;;;16.73;7.28;;;;;;;3.99;100.00;101232.34;1720944;83;21096;-52
2021/01/22 00:51:48;;;;;;;21.07;7.62;;;;;;;4.00;100.00;101224.82;1720959;83;21097;-51
2021/01/22 00:54:16;;;;;;;25.20;7.72;;;;;;;4.01;100.00;101229.70;1694335;83;21084;-51
2021/01/22 00:56:45;;;;;;;21.97;8.30;;;;;;;3.99;100.00;101228.36;1716995;83;21163;-51
2021/01/22 00:59:14;;;;;;;23.47;9.00;;;;;;;3.98;99.75;101233.23;1721130;83;21551;-51
2021/01/22 01:01:43;;;;;;;24.45;8.05;;;;;;;3.98;99.52;101232.36;1720688;83;21214;-51
2021/01/22 01:04:11;;;;;;;18.55;7.62;;;;;;;3.96;99.33;101229.69;1721131;83;21547;-51
2021/01/22 01:06:42;;;;;;;19.32;8.23;;;;;;;3.94;99.15;101230.14;1719167;83;21191;-51
2021/01/22 01:09:11;;;;;;;18.90;7.67;;;;;;;3.93;98.97;101229.70;1720974;83;21159;-51
2021/01/22 01:11:49;;;;;;;23.27;7.30;;;;;;;3.94;98.83;101228.81;1719104;83;21777;-51
2021/01/22 01:14:19;;;;;;;21.05;7.85;;;;;;;3.94;98.59;101222.17;1714546;83;21113;-52
2021/01/22 01:16:47;;;;;;;20.92;7.92;;;;;;;3.94;98.18;101222.17;1721082;83;21719;-52
2021/01/22 01:19:14;;;;;;;19.73;7.45;;;;;;;3.94;97.87;101218.62;1720992;83;21203;-52
2021/01/22 01:21:43;;;;;;;17.75;7.20;;;;;;;3.94;97.55;101214.22;1721163;83;21176;-52
2021/01/22 01:24:11;;;;;;;17.30;8.13;;;;;;;3.94;97.26;101207.59;1720877;83;21416;-52
2021/01/22 01:26:39;;;;;;;19.62;7.42;;;;;;;3.94;96.85;101198.30;1720961;83;21136;-51
2021/01/22 01:29:07;;;;;;;17.75;6.80;;;;;;;3.92;96.39;101207.13;1720935;83;21140;-51
2021/01/22 01:31:34;;;;;;;20.00;7.08;;;;;;;3.90;96.11;101208.91;1720953;83;21163;-51
2021/01/22 01:34:02;;;;;;;23.67;8.43;;;;;;;3.89;95.97;101208.03;1720905;83;21136;-51
2021/01/22 01:36:30;;;;;;;19.05;7.53;;;;;;;3.89;95.64;101205.38;1721026;83;21700;-52
2021/01/22 01:38:58;;;;;;;16.30;7.30;;;;;;;3.90;95.49;101208.48;1729099;83;21113;-52
2021/01/22 01:41:25;;;;;;;18.32;7.25;;;;;;;3.90;95.25;101211.13;1700289;84;21119;-52
2021/01/22 01:43:53;;;;;;;15.75;6.60;;;;;;;3.91;94.98;101197.41;1729468;83;21122;-52
2021/01/22 01:46:20;;;;;;;15.53;7.50;;;;;;;3.91;94.75;101205.36;1700328;83;21078;-51
2021/01/22 01:48:48;;;;;;;16.75;7.30;;;;;;;3.93;94.52;101202.27;1729486;83;21399;-51
2021/01/22 01:51:16;;;;;;;14.63;6.97;;;;;;;3.94;94.14;101198.30;1682981;84;21091;-52
2021/01/22 01:53:43;;;;;;;14.70;8.00;;;;;;;3.95;93.62;101194.77;1729485;83;21146;-52
2021/01/22 01:56:11;;;;;;;19.27;7.50;;;;;;;3.97;93.30;101196.97;1700285;83;21202;-52
2021/01/22 01:58:39;;;;;;;16.55;7.55;;;;;;;3.98;93.17;101188.12;1702801;83;21071;-52
2021/01/22 02:01:08;;;;;;;22.55;8.35;;;;;;;3.99;93.00;101192.55;1700283;84;21653;-51
2021/01/22 02:03:36;;;;;;;21.17;7.60;;;;;;;3.99;92.92;101189.89;1729488;83;21537;-52
2021/01/22 02:06:05;;;;;;;21.82;8.33;;;;;;;3.98;93.00;101189.45;1700299;84;21134;-51
2021/01/22 02:08:32;;;;;;;22.93;8.20;;;;;;;3.97;93.13;101186.78;1729459;83;21139;-52
2021/01/22 02:11:01;;;;;;;23.18;8.83;;;;;;;3.94;93.33;101186.36;1700333;84;21071;-51
2021/01/22 02:13:30;;;;;;;17.52;8.30;;;;;;;3.92;93.50;101180.17;1729412;83;21300;-52
2021/01/22 02:15:59;;;;;;;18.55;7.67;;;;;;;3.89;93.62;101181.51;1700237;84;21154;-52
2021/01/22 02:18:29;;;;;;;17.23;8.10;;;;;;;3.88;93.80;101182.39;1701815;83;21135;-52
2021/01/22 02:21:20;;;;;;;18.48;8.15;;;;;;;3.86;93.94;101186.36;1700348;83;21075;-51
2021/01/22 02:23:49;;;;;;;22.17;8.45;;;;;;;3.86;94.21;101179.73;1729359;83;21059;-52
2021/01/22 02:26:34;;;;;;;19.70;8.65;;;;;;;3.83;94.43;101173.53;1700325;84;21392;-51
2021/01/22 02:29:05;;;;;;;21.85;8.48;;;;;;;3.78;94.61;101176.20;1729484;83;21173;-51
2021/01/22 02:31:38;;;;;;;17.32;8.18;;;;;;;3.73;94.78;101176.19;1700298;84;21154;-51
2021/01/22 02:34:08;;;;;;;20.08;9.03;;;;;;;3.71;95.02;101172.66;1729533;83;21565;-52
2021/01/22 02:36:37;;;;;;;15.00;8.43;;;;;;;3.69;95.23;101181.06;1700378;84;21185;-52
2021/01/22 02:39:06;;;;;;;20.55;8.40;;;;;;;3.68;95.32;101177.97;1727931;83;21273;-51
2021/01/22 02:41:34;;;;;;;19.20;8.08;;;;;;;3.70;95.29;101178.84;1727828;83;21558;-51
2021/01/22 02:44:04;;;;;;;20.37;8.05;;;;;;;3.70;95.12;101169.56;1727914;83;21173;-52
2021/01/22 02:46:31;;;;;;;22.05;8.60;;;;;;;3.71;95.08;101175.31;1738283;81;21177;-52
2021/01/22 02:48:59;;;;;;;16.37;8.33;;;;;;;3.72;95.24;101173.53;1738916;82;21070;-52
2021/01/22 02:51:27;;;;;;;19.65;8.13;;;;;;;3.71;95.30;101177.06;1738832;82;21428;-52
2021/01/22 02:53:54;;;;;;;21.07;8.40;;;;;;;3.70;95.41;101177.52;1738836;82;21153;-51
2021/01/22 02:56:40;;;;;;;22.22;8.50;;;;;;;3.70;95.43;101174.88;1738998;82;21142;-51
2021/01/22 02:59:15;;;;;;;17.80;8.70;;;;;;;3.69;95.50;101179.73;1738113;82;21097;-51
2021/01/22 03:02:18;;;;;;;18.05;8.58;;;;;;;3.68;95.68;101172.66;1738948;82;21161;-51
2021/01/22 03:04:48;;;;;;;21.68;9.03;;;;;;;3.68;95.83;101179.30;1739014;82;21711;-52
2021/01/22 03:07:39;;;;;;;23.27;8.65;;;;;;;3.67;96.07;101168.25;1738985;82;21098;-52
2021/01/22 03:10:08;;;;;;;18.10;7.65;;;;;;;3.65;96.24;101167.79;1739104;82;21078;-51
2021/01/22 03:12:36;;;;;;;18.07;8.13;;;;;;;3.65;96.56;101164.71;1739030;82;21622;-51
2021/01/22 03:15:04;;;;;;;18.80;8.23;;;;;;;3.65;96.68;101167.36;1739100;82;21134;-53
2021/01/22 03:17:34;;;;;;;22.62;8.38;;;;;;;3.65;96.71;101160.73;1739056;82;21197;-51
2021/01/22 03:20:04;;;;;;;18.57;8.48;;;;;;;3.67;96.76;101160.29;1738966;82;21149;-51
2021/01/22 03:22:33;;;;;;;15.68;8.75;;;;;;;3.66;96.84;101163.83;1739000;82;21598;-51
2021/01/22 03:25:00;;;;;;;22.30;8.40;;;;;;;3.66;96.91;101161.17;1739025;82;21078;-51
2021/01/22 03:27:28;;;;;;;19.10;7.87;;;;;;;3.65;97.01;101155.86;1738982;82;21082;-52
2021/01/22 03:29:56;;;;;;;18.02;8.13;;;;;;;3.64;97.18;101149.66;1739023;82;21696;-51
2021/01/22 03:32:23;;;;;;;29.40;9.00;;;;;;;3.64;97.15;101164.23;1739067;82;21561;-51
2021/01/22 03:34:51;;;;;;;22.60;8.58;;;;;;;3.61;97.18;101166.89;1739131;82;21169;-51
2021/01/22 03:37:19;;;;;;;15.90;8.25;;;;;;;3.61;97.31;101168.67;1738912;82;21105;-51
2021/01/22 03:39:46;;;;;;;19.00;8.33;;;;;;;3.59;97.51;101163.36;1739001;82;21067;-52
2021/01/22 03:42:14;;;;;;;20.15;7.75;;;;;;;3.59;97.81;101171.31;1739001;82;21704;-51
2021/01/22 03:44:41;;;;;;;17.70;8.18;;;;;;;3.59;98.01;101166.01;1737855;81;21189;-51
2021/01/22 03:47:09;;;;;;;20.52;8.35;;;;;;;3.57;98.19;101168.68;1725480;83;21086;-52
2021/01/22 03:49:37;;;;;;;18.02;8.00;;;;;;;3.55;98.31;101164.25;1725425;83;21079;-51
2021/01/22 03:52:04;;;;;;;18.00;8.10;;;;;;;3.50;98.45;101165.55;1725471;83;21098;-52
2021/01/22 03:54:32;;;;;;;25.12;9.15;;;;;;;3.46;98.63;101167.77;1725345;83;21455;-51
2021/01/22 03:57:00;;;;;;;24.72;8.43;;;;;;;3.42;98.93;101163.35;1725397;83;21067;-52
2021/01/22 03:59:29;;;;;;;22.32;8.68;;;;;;;3.38;99.13;101169.08;1725411;83;21063;-51
2021/01/22 04:01:56;;;;;;;20.95;8.43;;;;;;;3.36;99.31;101170.84;1725379;83;21059;-52
2021/01/22 04:04:24;;;;;;;16.95;7.92;;;;;;;3.35;99.50;101168.22;1725522;83;21167;-51
2021/01/22 04:06:54;;;;;;;20.88;9.08;;;;;;;3.34;99.63;101168.64;1724191;83;21224;-51
2021/01/22 04:09:22;;;;;;;19.77;8.45;;;;;;;3.31;99.65;101160.69;1725397;83;21185;-52
2021/01/22 04:11:50;;;;;;;16.73;8.20;;;;;;;3.31;99.71;101164.66;1725351;83;21122;-52
2021/01/22 04:14:17;;;;;;;17.52;8.18;;;;;;;3.32;99.71;101158.94;1725466;83;21134;-51
2021/01/22 04:16:45;;;;;;;18.75;8.83;;;;;;;3.33;99.64;101161.57;1725388;83;21122;-51
2021/01/22 04:19:12;;;;;;;21.00;8.85;;;;;;;3.34;99.50;101163.34;1692909;83;21414;-51
2021/01/22 04:21:40;;;;;;;19.40;8.43;;;;;;;3.35;99.35;101166.89;1725293;83;21154;-51
2021/01/22 04:24:07;;;;;;;24.18;8.68;;;;;;;3.35;99.23;101157.16;1725462;83;21071;-51
2021/01/22 04:26:35;;;;;;;18.98;8.28;;;;;;;3.34;99.02;101165.13;1725286;83;21173;-51
2021/01/22 04:29:03;;;;;;;16.15;7.65;;;;;;;3.33;98.87;101173.50;1725474;83;21106;-51
2021/01/22 04:31:30;;;;;;;23.60;8.35;;;;;;;3.32;98.66;101161.12;1725415;83;22189;-52
2021/01/22 04:33:58;;;;;;;16.55;7.80;;;;;;;3.33;98.55;101164.22;1725308;83;20916;-51
2021/01/22 04:36:25;;;;;;;22.87;7.55;;;;;;;3.34;98.28;101159.82;1725429;83;21020;-51
2021/01/22 04:38:53;;;;;;;16.12;7.65;;;;;;;3.36;98.05;101166.00;1698421;83;21138;-51
2021/01/22 04:41:20;;;;;;;23.22;7.60;;;;;;;3.37;97.70;101165.13;1696429;84;21103;-52
2021/01/22 04:43:48;;;;;;;20.37;8.20;;;;;;;3.38;97.51;101165.56;1696312;84;21780;-51
2021/01/22 04:46:16;;;;;;;17.20;7.50;;;;;;;3.38;97.46;101155.83;1697648;84;21145;-52
2021/01/22 04:48:43;;;;;;;18.27;8.25;;;;;;;3.38;97.44;101158.48;1698783;84;21141;-51
2021/01/22 04:51:11;;;;;;;25.80;9.73;;;;;;;3.38;97.51;101162.45;1698853;84;21103;-51
2021/01/22 04:53:39;;;;;;;22.87;8.90;;;;;;;3.34;97.62;101154.06;1698801;84;21090;-52
2021/01/22 04:56:06;;;;;;;17.73;8.30;;;;;;;3.29;97.83;101157.16;1698872;84;21771;-52
2021/01/22 04:58:36;;;;;;;24.02;8.18;;;;;;;3.27;98.14;101154.48;1671068;84;21142;-52
2021/01/22 05:01:04;;;;;;;21.65;8.10;;;;;;;3.26;98.38;101151.85;1698887;84;21550;-52
2021/01/22 05:03:32;;;;;;;20.15;8.35;;;;;;;3.24;98.66;101158.92;1698807;84;21217;-51
2021/01/22 05:05:59;;;;;;;23.30;9.25;;;;;;;3.23;99.11;101146.55;1698772;84;21090;-52
2021/01/22 05:08:28;;;;;;;23.25;9.13;;;;;;;3.25;99.36;101146.11;1698990;84;22617;-51
2021/01/22 05:10:55;;;;;;;15.88;7.70;;;;;;;3.24;99.68;101143.88;1698974;84;21679;-52
2021/01/22 05:13:23;;;;;;;17.15;8.00;;;;;;;3.25;99.86;101144.78;1698917;84;21213;-52
2021/01/22 05:16:11;;;;;;;19.52;8.03;;;;;;;3.26;100.00;101141.25;1698866;84;21541;-52
2021/01/22 05:18:39;;;;;;;15.93;8.05;;;;;;;3.24;100.00;101144.34;1698947;84;21638;-51
2021/01/22 05:21:10;;;;;;;21.50;8.35;;;;;;;3.25;100.00;101142.13;1698809;84;21384;-52
2021/01/22 05:23:39;;;;;;;24.87;8.45;;;;;;;3.24;100.00;101146.99;1698759;84;21082;-52
2021/01/22 05:26:10;;;;;;;18.07;7.65;;;;;;;3.26;100.00;101146.55;1698867;84;21087;-52
2021/01/22 05:28:47;;;;;;;18.65;7.87;;;;;;;3.28;99.80;101142.13;1698382;84;21536;-52
2021/01/22 05:31:18;;;;;;;24.92;8.93;;;;;;;3.30;99.66;101143.02;1698941;84;21222;-52
2021/01/22 05:33:58;;;;;;;23.75;8.45;;;;;;;3.34;99.46;101150.08;1698806;84;21217;-52
2021/01/22 05:36:30;;;;;;;16.85;7.85;;;;;;;3.34;99.30;101148.76;1698757;84;21146;-52
2021/01/22 05:39:00;;;;;;;19.25;8.03;;;;;;;3.35;99.07;101151.85;1724931;83;21152;-52
2021/01/22 05:41:30;;;;;;;19.57;8.10;;;;;;;3.38;98.91;101151.85;1726417;83;21117;-52
2021/01/22 05:43:57;;;;;;;21.02;8.55;;;;;;;3.42;98.73;101158.92;1720629;83;21054;-52
2021/01/22 05:46:27;;;;;;;18.73;8.23;;;;;;;3.48;98.52;101155.85;1732080;81;21364;-51
2021/01/22 05:49:10;;;;;;;18.82;8.53;;;;;;;3.54;98.13;101147.89;1703889;84;21574;-51
2021/01/22 05:51:37;;;;;;;20.72;8.48;;;;;;;3.60;97.67;101141.26;1724855;83;21554;-52
2021/01/22 05:54:05;;;;;;;18.57;8.60;;;;;;;3.67;97.26;101145.70;1703827;84;21148;-52
2021/01/22 05:56:33;;;;;;;17.52;7.83;;;;;;;3.73;96.98;101147.02;1724795;83;21123;-52
2021/01/22 05:59:15;;;;;;;16.35;8.60;;;;;;;3.81;96.63;101140.81;1703865;84;21824;-52
2021/01/22 06:01:42;;;;;;;17.42;7.92;;;;;;;3.87;96.17;101150.12;1724729;83;21194;-52
2021/01/22 06:04:10;;;;;;;21.33;8.65;;;;;;;3.89;95.73;101148.34;1703875;84;21161;-52
2021/01/22 06:06:38;;;;;;;18.57;7.75;;;;;;;3.94;95.54;101143.02;1724826;83;21150;-52
2021/01/22 06:09:07;;;;;;;23.87;8.80;;;;;;;3.98;95.25;101147.00;1703853;84;21120;-52
2021/01/22 06:11:37;;;;;;;21.17;8.53;;;;;;;4.05;95.05;101149.63;1724797;83;21098;-52
2021/01/22 06:14:07;;;;;;;21.02;8.23;;;;;;;4.08;94.75;101149.63;1703693;84;21148;-52
2021/01/22 06:16:36;;;;;;;20.08;8.55;;;;;;;4.13;94.51;101146.54;1724818;83;21119;-52
2021/01/22 06:19:06;;;;;;;20.82;8.80;;;;;;;4.16;94.19;101155.36;1703769;84;21141;-51
2021/01/22 06:21:39;;;;;;;21.37;8.05;;;;;;;4.18;94.02;101150.06;1724933;83;21133;-51
2021/01/22 06:24:08;;;;;;;19.42;8.93;;;;;;;4.21;93.96;101146.53;1703790;84;21165;-51
2021/01/22 06:26:39;;;;;;;20.02;8.33;;;;;;;4.22;93.88;101143.86;1724725;83;21194;-51
2021/01/22 06:29:09;;;;;;;17.45;8.83;;;;;;;4.26;93.33;101145.61;1703778;84;21078;-51
2021/01/22 06:31:37;;;;;;;20.45;8.40;;;;;;;4.32;93.08;101148.70;1724785;83;21103;-51
2021/01/22 06:34:05;;;;;;;17.48;7.45;;;;;;;4.38;92.56;101144.69;1703881;83;21105;-51
2021/01/22 06:36:33;;;;;;;21.40;8.45;;;;;;;4.46;92.13;101159.73;1724806;83;21399;-51
2021/01/22 06:39:02;;;;;;;16.50;7.65;;;;;;;4.52;91.67;101153.94;1702998;84;21098;-51
2021/01/22 06:41:31;;;;;;;17.30;8.08;;;;;;;4.56;91.26;101154.39;1732007;82;32621;-52
2021/01/22 06:43:59;;;;;;;16.65;8.58;;;;;;;4.62;90.61;101157.44;1703107;84;21065;-52
2021/01/22 06:46:29;;;;;;;19.02;8.10;;;;;;;4.66;90.21;101151.26;1729661;82;21083;-52
2021/01/22 06:49:01;;;;;;;20.77;7.35;;;;;;;4.70;89.73;101150.78;1724068;83;21383;-52
2021/01/22 06:51:33;;;;;;;15.90;8.03;;;;;;;4.71;89.12;101154.77;1695219;84;21072;-52
2021/01/22 06:54:19;;;;;;;17.07;7.80;;;;;;;4.72;88.63;101153.88;1732047;82;21127;-53
2021/01/22 06:57:00;;;;;;;21.33;7.78;;;;;;;4.73;88.31;101162.28;1731299;82;21176;-51
2021/01/22 06:59:34;;;;;;;18.62;8.20;;;;;;;4.71;87.89;101149.89;1707684;84;21145;-51
2021/01/22 07:02:00;;;;;;;17.85;7.87;;;;;;;4.69;87.62;101154.33;1733289;82;21214;-51
2021/01/22 07:04:38;;;;;;;14.23;7.05;;;;;;;4.66;87.22;101147.70;1733224;82;21094;-52
2021/01/22 07:07:08;;;;;;;18.12;7.53;;;;;;;4.63;86.90;101157.02;1733106;82;21070;-52
2021/01/22 07:09:48;;;;;;;17.55;7.55;;;;;;;4.62;86.82;101156.58;1731454;82;21203;-52
2021/01/22 07:12:18;;;;;;;16.77;7.53;;;;;;;4.63;86.80;101155.69;1696494;84;21142;-51
2021/01/22 07:14:48;;;;;;;18.65;8.23;;;;;;;4.61;86.46;101147.71;1700229;84;21426;-52
2021/01/22 07:17:28;;;;;;;16.37;8.18;;;;;;;4.57;86.36;101148.19;1704357;84;21593;-52
2021/01/22 07:20:08;;;;;;;16.87;7.35;;;;;;;4.56;86.03;101153.06;1704358;84;21149;-52
2021/01/22 07:22:51;;;;;;;16.70;7.53;;;;;;;4.55;85.94;101152.63;1704156;84;21133;-52
2021/01/22 07:25:44;;;;;;;14.00;7.40;;;;;;;4.55;86.02;101149.97;1704388;84;21062;-52
2021/01/22 07:28:20;;;;;;;15.23;7.78;;;;;;;4.55;85.90;101144.66;1686967;84;21214;-52
2021/01/22 07:30:48;;;;;;;15.75;7.67;;;;;;;4.59;85.96;101149.06;1704226;84;21073;-52
2021/01/22 07:33:36;;;;;;;14.85;7.58;;;;;;;4.64;85.92;101146.40;1704308;84;21125;-52
2021/01/22 07:36:11;;;;;;;15.75;8.43;;;;;;;4.69;85.85;101147.69;1694954;84;21126;-53
2021/01/22 07:38:39;;;;;;;20.85;7.65;;;;;;;4.72;85.68;101154.31;1719770;83;21198;-52
2021/01/22 07:41:09;;;;;;;15.60;7.15;;;;;;;4.72;85.31;101160.52;1695714;83;21340;-52
2021/01/22 07:43:36;;;;;;;19.37;6.87;;;;;;;4.77;85.05;101163.16;1724591;83;21159;-53
2021/01/22 07:46:10;;;;;;;14.83;7.45;;;;;;;4.82;84.76;101160.04;1695822;84;21575;-51
2021/01/22 07:48:40;;;;;;;16.77;7.72;;;;;;;4.91;84.49;101161.77;1724853;83;21083;-52
2021/01/22 07:51:36;;;;;;;14.68;7.22;;;;;;;4.99;84.57;101164.39;1695863;84;21095;-53
2021/01/22 07:54:04;;;;;;;18.12;7.65;;;;;;;5.06;84.83;101164.78;1724635;83;21408;-52
2021/01/22 07:56:36;;;;;;;15.40;7.50;;;;;;;5.18;84.93;101162.94;1724625;83;21614;-52
2021/01/22 07:59:06;;;;;;;17.73;8.05;;;;;;;5.25;84.96;101170.00;1695394;83;21198;-53
2021/01/22 08:01:36;;;;;;;18.82;8.28;;;;;;;5.34;84.84;101164.61;1652257;85;21188;-53
2021/01/22 08:04:05;;;;;;;22.62;8.88;;;;;;;5.41;84.80;101161.01;1704578;84;21137;-53
2021/01/22 08:06:51;;;;;;;19.17;8.45;;;;;;;5.46;84.57;101164.98;1696173;84;21141;-52
2021/01/22 08:09:18;;;;;;;21.67;9.23;;;;;;;5.47;84.61;101163.22;1696445;84;21078;-52
2021/01/22 08:11:52;;;;;;;19.85;8.78;;;;;;;5.47;84.80;101167.20;1696193;84;21070;-51
2021/01/22 08:14:30;;;;;;;19.73;8.83;;;;;;;5.49;84.94;101161.42;1701252;83;21109;-52
2021/01/22 08:16:58;;;;;;;20.27;8.33;;;;;;;5.52;84.72;101162.73;1725436;83;21063;-52
2021/01/22 08:19:27;;;;;;;14.58;7.70;;;;;;;5.54;84.53;101159.60;1725493;83;22284;-52
2021/01/22 08:21:54;;;;;;;23.73;8.03;;;;;;;5.58;84.52;101162.67;1725155;83;21125;-51
2021/01/22 08:24:23;;;;;;;22.50;9.00;;;;;;;5.62;84.58;101147.11;1725336;83;21224;-52
2021/01/22 08:27:00;;;;;;;20.08;8.75;;;;;;;5.73;84.58;101151.02;1725273;83;21075;-52
2021/01/22 08:29:30;;;;;;;21.20;8.73;;;;;;;5.73;84.58;101144.36;1720813;83;21146;-52
2021/01/22 08:31:57;;;;;;;20.72;9.28;;;;;;;5.80;84.51;101155.84;1712445;83;21790;-53
2021/01/22 08:34:25;;;;;;;23.65;9.38;;;;;;;5.85;84.62;101153.59;1706985;83;21138;-52
2021/01/22 08:36:56;;;;;;;24.02;9.78;;;;;;;5.96;84.44;101160.14;1722435;83;21119;-52
2021/01/22 08:39:24;;;;;;;21.37;9.43;;;;;;;6.01;84.39;101152.16;1696205;84;21211;-52
2021/01/22 08:41:52;;;;;;;18.65;8.38;;;;;;;6.06;84.36;101150.76;1696383;84;21161;-52
2021/01/22 08:44:22;;;;;;;22.58;8.55;;;;;;;6.13;84.26;101146.70;1694095;84;21388;-52
2021/01/22 08:46:54;;;;;;;18.67;8.68;;;;;;;6.24;84.09;101150.58;1708780;83;21152;-52
2021/01/22 08:49:22;;;;;;;23.22;8.93;;;;;;;6.29;83.65;101146.08;1708932;84;21444;-52
2021/01/22 08:51:49;;;;;;;19.70;8.58;;;;;;;6.34;83.19;101150.03;1708982;84;21148;-52
2021/01/22 08:54:19;;;;;;;20.43;8.85;;;;;;;6.36;82.34;101140.70;1708970;84;21037;-52
2021/01/22 08:57:04;;;;;;;19.73;8.53;;;;;;;6.36;82.34;101140.70;1708923;84;21150;-52
2021/01/22 08:59:48;;;;;;;19.87;9.00;;;;;;;6.37;82.23;101137.14;1708944;84;21188;-52
2021/01/22 09:02:40;;;;;;;19.90;8.83;;;;;;;6.36;82.04;101135.37;1708983;84;21120;-52
2021/01/22 09:05:16;;;;;;;19.95;10.03;;;;;;;6.35;82.12;101133.15;1708962;83;21156;-53
2021/01/22 09:07:44;;;;;;;19.52;9.63;;;;;;;6.33;82.31;101132.29;1704226;84;21141;-53
2021/01/22 09:10:28;;;;;;;19.30;9.33;;;;;;;6.34;82.40;101129.19;1704067;84;21466;-52
2021/01/22 09:13:14;;;;;;;15.60;7.97;;;;;;;6.34;82.40;101130.52;1704095;84;21129;-53
2021/01/22 09:15:42;;;;;;;22.02;8.93;;;;;;;6.34;82.50;101123.39;1708013;82;21177;-52
2021/01/22 09:18:25;;;;;;;23.25;10.05;;;;;;;6.36;82.58;101125.59;1723971;82;21070;-52
2021/01/22 09:21:04;;;;;;;17.05;8.40;;;;;;;6.36;82.61;101118.06;1713534;82;21557;-52
2021/01/22 09:23:33;;;;;;;21.10;8.55;;;;;;;6.37;82.72;101125.16;1703894;84;21555;-52
2021/01/22 09:26:01;;;;;;;18.67;7.62;;;;;;;6.39;82.64;101118.03;1703938;84;21505;-53
2021/01/22 09:28:36;;;;;;;20.48;7.97;;;;;;;6.39;82.49;101116.70;1673920;84;21205;-53
2021/01/22 09:31:06;;;;;;;15.38;7.20;;;;;;;6.48;81.84;101120.56;1653265;84;21605;-52
2021/01/22 09:33:35;;;;;;;17.60;8.10;;;;;;;6.48;81.84;101120.56;1650781;84;21562;-52
2021/01/22 09:36:04;;;;;;;18.27;7.92;;;;;;;6.54;81.79;101102.30;1703283;84;21260;-51
2021/01/22 09:38:32;;;;;;;19.65;7.55;;;;;;;6.62;81.18;101110.20;1726035;82;21158;-51
2021/01/22 09:41:01;;;;;;;16.25;7.47;;;;;;;6.67;80.77;101111.02;1695667;83;21107;-51
2021/01/22 09:43:29;;;;;;;17.35;8.18;;;;;;;6.69;80.56;101104.78;1724325;83;21099;-51
2021/01/22 09:45:58;;;;;;;15.05;7.60;;;;;;;6.74;80.26;101102.03;1724464;83;21083;-50
2021/01/22 09:48:26;;;;;;;17.77;7.40;;;;;;;6.81;79.99;101098.41;1719511;83;21227;-51
2021/01/22 09:50:54;;;;;;;16.15;7.22;;;;;;;6.85;79.90;101090.78;1728915;83;21102;-52
2021/01/22 09:53:22;;;;;;;13.30;7.22;;;;;;;6.88;79.55;101090.73;1759405;81;21205;-52
2021/01/22 09:55:51;;;;;;;17.27;7.58;;;;;;;6.88;79.50;101096.54;1729157;83;21181;-53
2021/01/22 09:58:19;;;;;;;19.73;7.92;;;;;;;6.91;79.34;101090.27;1759582;81;21158;-52
2021/01/22 10:00:49;;;;;;;15.15;7.30;;;;;;;6.95;79.19;101094.64;1744897;81;21201;-52
2021/01/22 10:03:22;;;;;;;15.90;7.08;;;;;;;6.95;79.19;101094.64;1752272;80;21179;-52
2021/01/22 10:05:57;;;;;;;18.32;7.28;;;;;;;6.95;79.22;101090.64;1754175;81;21194;-52
2021/01/22 10:08:36;;;;;;;15.90;6.67;;;;;;;6.97;79.47;101083.53;1667257;82;21469;-51
2021/01/22 10:11:14;;;;;;;14.15;7.42;;;;;;;7.02;79.43;101085.67;1711544;81;21563;-51
2021/01/22 10:13:54;;;;;;;15.63;7.62;;;;;;;7.06;79.40;101090.05;1688115;81;21191;-51
2021/01/22 10:16:28;;;;;;;13.83;7.08;;;;;;;7.10;79.37;101079.77;1686105;81;21542;-51
2021/01/22 10:19:01;;;;;;;15.10;6.33;;;;;;;7.15;79.03;101086.36;1752479;81;21149;-51
2021/01/22 10:21:37;;;;;;;15.32;6.87;;;;;;;7.19;78.63;101079.21;1698532;82;21233;-51
2021/01/22 10:24:10;;;;;;;15.18;6.85;;;;;;;7.24;78.17;101081.34;1762708;80;21199;-57
2021/01/22 10:26:49;;;;;;;13.43;6.62;;;;;;;7.30;77.70;101074.13;1708997;81;21298;-57
2021/01/22 10:29:20;;;;;;;15.32;6.45;;;;;;;7.37;77.55;101070.02;1736835;81;21626;-59
2021/01/22 10:31:55;;;;;;;19.73;7.05;;;;;;;7.42;77.25;101059.70;1704060;81;25097;-58
2021/01/22 10:34:27;;;;;;;16.30;6.10;;;;;;;7.48;76.89;101057.37;1713781;81;21091;-58
2021/01/22 10:36:55;;;;;;;17.50;6.35;;;;;;;7.54;76.81;101051.05;1750125;81;21189;-58
2021/01/22 10:39:23;;;;;;;11.28;5.37;;;;;;;7.58;76.24;101053.64;1756524;81;21358;-58
2021/01/22 10:41:51;;;;;;;13.88;5.90;;;;;;;7.62;75.90;101046.45;1757023;81;21058;-59
2021/01/22 10:44:19;;;;;;;14.10;6.10;;;;;;;7.67;75.78;101041.93;1757143;81;21051;-58
2021/01/22 10:46:47;;;;;;;12.28;5.95;;;;;;;7.73;75.17;101035.57;1757083;81;21106;-58
2021/01/22 10:49:14;;;;;;;15.28;5.35;;;;;;;7.78;74.90;101031.05;1743914;81;21126;-59
2021/01/22 10:51:42;;;;;;;15.28;6.55;;;;;;;7.83;74.63;101029.17;1742949;82;21390;-59
2021/01/22 10:54:10;;;;;;;13.38;6.00;;;;;;;7.87;74.58;101026.00;1742998;82;21107;-59
2021/01/22 10:56:39;;;;;;;20.12;6.85;;;;;;;7.91;74.55;101015.67;1742968;81;21067;-59
2021/01/22 10:59:07;;;;;;;12.85;6.35;;;;;;;7.95;74.83;101011.14;1743099;82;21076;-59
2021/01/22 11:01:34;;;;;;;16.23;6.37;;;;;;;7.99;75.01;101003.52;1743165;82;21126;-59
2021/01/22 11:04:03;;;;;;;11.70;6.10;;;;;;;7.98;74.47;101015.97;1743139;82;22263;-59
2021/01/22 11:06:30;;;;;;;15.80;6.22;;;;;;;7.95;74.17;101005.36;1743130;82;21059;-59
2021/01/22 11:08:58;;;;;;;14.50;6.70;;;;;;;7.91;74.22;100996.99;1743065;82;20952;-59
2021/01/22 11:11:30;;;;;;;13.28;5.87;;;;;;;7.91;74.22;100996.99;1751102;80;21178;-57
2021/01/22 11:14:02;;;;;;;17.35;6.22;;;;;;;7.96;74.05;101003.58;1682167;82;21229;-59
2021/01/22 11:16:30;;;;;;;10.58;5.58;;;;;;;7.98;73.96;100998.62;1726361;82;21710;-58
2021/01/22 11:18:58;;;;;;;14.90;6.70;;;;;;;7.97;73.82;100996.86;1727444;82;21081;-59
2021/01/22 11:21:25;;;;;;;10.23;5.40;;;;;;;7.95;73.60;100991.11;1728694;82;21162;-59
2021/01/22 11:23:53;;;;;;;10.68;5.70;;;;;;;7.95;73.44;100997.78;1726920;82;21215;-58
2021/01/22 11:26:20;;;;;;;13.78;5.72;;;;;;;7.92;73.02;100996.52;1727100;81;21031;-58
2021/01/22 11:28:49;;;;;;;12.78;5.87;;;;;;;7.92;73.13;100980.50;1729208;82;21673;-57
2021/01/22 11:31:16;;;;;;;12.95;6.08;;;;;;;7.94;73.10;100984.91;1727676;82;21135;-59
2021/01/22 11:33:48;;;;;;;11.83;5.60;;;;;;;7.95;73.01;100987.11;1726502;81;21154;-58
2021/01/22 11:36:14;;;;;;;8.95;5.15;;;;;;;7.97;73.10;100991.52;1727268;82;21574;-59
2021/01/22 11:38:42;;;;;;;11.30;5.60;;;;;;;8.00;72.93;100980.77;1727245;82;21771;-59
2021/01/22 11:41:09;;;;;;;11.80;4.85;;;;;;;8.02;72.93;100978.94;1729422;82;21389;-58